Time,TemperatureF,DewpointF,PressureIn,WindDirection,WindDirectionDegrees,WindSpeedMPH,WindSpeedGustMPH,Humidity,HourlyPrecipIn,Conditions,Clouds,dailyrainin,SoftwareType,DateUTC
2013-09-10 00:03:00,64.2,61.3,29.65,SW,225,0.0,0.7,90,0.00,,,0.00,WUHU21623XXSP,2013-09-10 05:03:00,
2013-09-10 00:08:00,64.2,61.2,29.65,NNW,337,0.0,0.7,90,0.00,,,0.00,WUHU21623XXSP,2013-09-10 05:08:00,
2013-09-10 00:13:00,64.2,61.3,29.64,SW,225,0.0,0.0,90,0.00,,,0.00,WUHU21623XXSP,2013-09-10 05:13:00,
2013-09-10 00:18:00,64.2,61.3,29.64,SW,225,0.0,0.0,90,0.00,,,0.00,WUHU21623XXSP,2013-09-10 05:18:00,
2013-09-10 00:23:00,64.2,61.3,29.64,SW,225,0.0,0.0,90,0.00,,,0.00,WUHU21623XXSP,2013-09-10 05:23:00,
2013-09-10 00:28:00,64.2,61.2,29.64,NNW,337,0.0,0.0,90,0.00,,,0.00,WUHU21623XXSP,2013-09-10 05:28:00,
2013-09-10 00:33:00,64.2,61.3,29.64,SW,225,0.0,0.0,90,0.00,,,0.00,WUHU21623XXSP,2013-09-10 05:33:00,
2013-09-10 00:38:00,64.2,61.3,29.65,SW,225,0.0,0.0,90,0.00,,,0.00,WUHU21623XXSP,2013-09-10 05:38:00,
2013-09-10 00:43:00,64.2,61.3,29.65,SW,225,0.0,0.0,90,0.00,,,0.00,WUHU21623XXSP,2013-09-10 05:43:00,
2013-09-10 00:48:00,64.2,61.3,29.65,SSW,202,0.0,0.0,90,0.00,,,0.00,WUHU21623XXSP,2013-09-10 05:48:00,
2013-09-10 00:53:00,64.2,61.3,29.65,SSW,202,0.0,0.0,90,0.00,,,0.00,WUHU21623XXSP,2013-09-10 05:53:00,
2013-09-10 00:58:00,64.2,61.3,29.65,SSW,202,0.0,0.0,90,0.00,,,0.00,WUHU21623XXSP,2013-09-10 05:58:00,
2013-09-10 01:03:00,64.2,61.3,29.65,SSW,202,0.0,0.0,90,0.00,,,0.00,WUHU21623XXSP,2013-09-10 06:03:00,
2013-09-10 01:08:00,64.4,61.5,29.65,SSW,202,0.0,0.0,90,0.02,,,0.02,WUHU21623XXSP,2013-09-10 06:08:00,
2013-09-10 01:13:00,64.6,61.7,29.65,SSW,202,0.0,0.0,90,0.02,,,0.02,WUHU21623XXSP,2013-09-10 06:13:00,
2013-09-10 01:18:00,64.6,61.7,29.65,SSW,202,0.0,0.0,90,0.04,,,0.04,WUHU21623XXSP,2013-09-10 06:18:00,
2013-09-10 01:23:00,64.6,61.7,29.64,SSW,202,0.0,0.0,90,0.06,,,0.06,WUHU21623XXSP,2013-09-10 06:23:00,
2013-09-10 01:28:00,64.6,61.7,29.64,SSW,202,0.0,0.0,90,0.08,,,0.08,WUHU21623XXSP,2013-09-10 06:28:00,
2013-09-10 01:33:00,64.4,61.5,29.64,SSW,202,0.0,0.0,90,0.08,,,0.08,WUHU21623XXSP,2013-09-10 06:33:00,
2013-09-10 01:38:00,64.4,61.5,29.65,SSW,202,0.0,0.0,90,0.08,,,0.08,WUHU21623XXSP,2013-09-10 06:38:00,
2013-09-10 01:43:00,64.2,61.3,29.65,SSW,202,0.0,0.0,90,0.10,,,0.10,WUHU21623XXSP,2013-09-10 06:43:00,
2013-09-10 01:48:00,64.4,61.5,29.65,SSW,202,0.0,0.0,90,0.12,,,0.12,WUHU21623XXSP,2013-09-10 06:48:00,
2013-09-10 01:53:00,64.4,61.5,29.65,SSW,202,0.0,0.0,90,0.12,,,0.12,WUHU21623XXSP,2013-09-10 06:53:00,
2013-09-10 01:58:00,64.4,61.5,29.65,SSW,202,0.0,0.0,90,0.12,,,0.12,WUHU21623XXSP,2013-09-10 06:58:00,
2013-09-10 02:03:00,64.6,61.7,29.65,South,180,0.0,0.7,90,0.12,,,0.12,WUHU21623XXSP,2013-09-10 07:03:00,
2013-09-10 02:08:00,64.6,61.7,29.65,South,180,0.0,0.7,90,0.10,,,0.12,WUHU21623XXSP,2013-09-10 07:08:00,
2013-09-10 02:13:00,64.6,61.7,29.65,South,180,0.0,0.0,90,0.10,,,0.12,WUHU21623XXSP,2013-09-10 07:13:00,
2013-09-10 02:18:00,64.6,61.7,29.65,South,180,0.0,0.0,90,0.06,,,0.12,WUHU21623XXSP,2013-09-10 07:18:00,
2013-09-10 02:23:00,64.6,61.7,29.65,South,180,0.0,0.0,90,0.06,,,0.12,WUHU21623XXSP,2013-09-10 07:23:00,
2013-09-10 02:28:00,64.6,61.7,29.65,South,180,0.0,0.0,90,0.04,,,0.12,WUHU21623XXSP,2013-09-10 07:28:00,
2013-09-10 02:33:00,64.6,61.7,29.65,South,180,0.0,0.0,90,0.04,,,0.12,WUHU21623XXSP,2013-09-10 07:33:00,
2013-09-10 02:38:00,64.6,61.7,29.65,South,180,0.0,0.0,90,0.04,,,0.12,WUHU21623XXSP,2013-09-10 07:38:00,
2013-09-10 02:43:00,64.6,61.7,29.65,SSW,202,0.0,0.0,90,0.02,,,0.12,WUHU21623XXSP,2013-09-10 07:43:00,
2013-09-10 02:48:00,64.6,61.7,29.66,SSW,202,0.0,0.0,90,0.00,,,0.12,WUHU21623XXSP,2013-09-10 07:48:00,
2013-09-10 02:53:00,64.6,61.7,29.65,SW,225,0.0,0.0,90,0.00,,,0.12,WUHU21623XXSP,2013-09-10 07:53:00,
2013-09-10 02:58:00,64.6,61.7,29.65,SW,225,0.0,0.0,90,0.00,,,0.12,WUHU21623XXSP,2013-09-10 07:58:00,
2013-09-10 03:03:00,64.6,61.7,29.66,WSW,247,0.0,0.0,90,0.00,,,0.12,WUHU21623XXSP,2013-09-10 08:03:00,
2013-09-10 03:08:00,64.6,61.7,29.66,WSW,247,0.0,0.0,90,0.00,,,0.12,WUHU21623XXSP,2013-09-10 08:08:00,
2013-09-10 03:13:00,64.6,61.7,29.66,WSW,247,0.0,0.0,90,0.00,,,0.12,WUHU21623XXSP,2013-09-10 08:13:00,
2013-09-10 03:18:00,64.6,61.7,29.66,WSW,247,0.0,0.0,90,0.00,,,0.12,WUHU21623XXSP,2013-09-10 08:18:00,
2013-09-10 03:23:00,64.6,61.7,29.66,WSW,247,0.0,0.0,90,0.00,,,0.12,WUHU21623XXSP,2013-09-10 08:23:00,
2013-09-10 03:28:00,64.6,61.7,29.65,WSW,247,0.0,0.0,90,0.00,,,0.12,WUHU21623XXSP,2013-09-10 08:28:00,
2013-09-10 03:33:00,64.6,61.7,29.66,WSW,247,0.0,0.0,90,0.00,,,0.12,WUHU21623XXSP,2013-09-10 08:33:00,
2013-09-10 03:38:00,64.6,61.7,29.66,SW,225,0.0,0.0,90,0.00,,,0.12,WUHU21623XXSP,2013-09-10 08:38:00,
2013-09-10 03:43:00,64.6,61.7,29.66,SW,225,0.0,0.0,90,0.00,,,0.12,WUHU21623XXSP,2013-09-10 08:43:00,
2013-09-10 03:48:00,64.6,61.7,29.66,SW,225,0.0,0.0,90,0.00,,,0.12,WUHU21623XXSP,2013-09-10 08:48:00,
2013-09-10 03:53:00,64.8,61.8,29.66,WSW,247,0.0,0.0,90,0.00,,,0.12,WUHU21623XXSP,2013-09-10 08:53:00,
2013-09-10 03:58:00,64.8,61.8,29.66,WSW,247,0.0,0.0,90,0.00,,,0.12,WUHU21623XXSP,2013-09-10 08:58:00,
2013-09-10 04:03:00,64.8,61.8,29.67,SW,225,0.0,0.0,90,0.00,,,0.12,WUHU21623XXSP,2013-09-10 09:03:00,
2013-09-10 04:09:00,64.8,61.8,29.67,WSW,247,0.0,0.0,90,0.00,,,0.12,WUHU21623XXSP,2013-09-10 09:09:00,
2013-09-10 04:14:00,64.9,62.0,29.67,West,270,0.0,1.6,90,0.00,,,0.12,WUHU21623XXSP,2013-09-10 09:14:00,
2013-09-10 04:19:00,64.9,62.0,29.67,SSE,157,0.0,2.9,90,0.00,,,0.12,WUHU21623XXSP,2013-09-10 09:19:00,
2013-09-10 04:24:00,65.1,62.2,29.67,WSW,247,0.0,2.9,90,0.00,,,0.12,WUHU21623XXSP,2013-09-10 09:24:00,
2013-09-10 04:29:00,65.1,62.2,29.67,NW,315,0.0,0.9,90,0.00,,,0.12,WUHU21623XXSP,2013-09-10 09:29:00,
2013-09-10 04:34:00,65.1,62.2,29.67,WSW,247,0.0,3.4,90,0.00,,,0.12,WUHU21623XXSP,2013-09-10 09:34:00,
2013-09-10 04:39:00,65.3,62.3,29.67,WSW,247,0.0,3.4,90,0.02,,,0.14,WUHU21623XXSP,2013-09-10 09:39:00,
2013-09-10 04:44:00,65.3,62.3,29.67,West,270,0.0,0.1,90,0.02,,,0.14,WUHU21623XXSP,2013-09-10 09:44:00,
2013-09-10 04:49:00,65.3,62.3,29.67,WNW,292,0.0,6.7,90,0.02,,,0.14,WUHU21623XXSP,2013-09-10 09:49:00,
2013-09-10 04:54:00,65.3,62.3,29.67,WNW,292,0.0,6.7,90,0.02,,,0.14,WUHU21623XXSP,2013-09-10 09:54:00,
2013-09-10 04:59:00,65.3,62.3,29.68,NNW,337,0.9,2.9,90,0.02,,,0.14,WUHU21623XXSP,2013-09-10 09:59:00,
2013-09-10 05:04:00,65.3,62.3,29.68,West,270,0.0,3.6,90,0.02,,,0.14,WUHU21623XXSP,2013-09-10 10:04:00,
2013-09-10 05:09:00,65.1,62.2,29.68,WNW,292,0.0,4.5,90,0.02,,,0.14,WUHU21623XXSP,2013-09-10 10:09:00,
2013-09-10 05:14:00,65.1,62.2,29.68,West,270,0.0,4.5,90,0.02,,,0.14,WUHU21623XXSP,2013-09-10 10:14:00,
2013-09-10 05:19:00,65.1,62.2,29.68,West,270,0.0,3.6,90,0.02,,,0.14,WUHU21623XXSP,2013-09-10 10:19:00,
2013-09-10 05:24:00,64.9,62.0,29.68,NW,315,6.3,6.3,90,0.02,,,0.14,WUHU21623XXSP,2013-09-10 10:24:00,
2013-09-10 05:29:00,64.9,62.0,29.68,NW,315,2.5,6.3,90,0.02,,,0.14,WUHU21623XXSP,2013-09-10 10:29:00,
2013-09-10 05:34:00,64.9,62.0,29.69,WNW,292,0.0,5.8,90,0.02,,,0.14,WUHU21623XXSP,2013-09-10 10:34:00,
2013-09-10 05:39:00,64.9,62.0,29.68,WNW,292,0.0,4.9,90,0.00,,,0.14,WUHU21623XXSP,2013-09-10 10:39:00,
2013-09-10 05:44:00,64.8,61.8,29.69,NW,315,0.0,5.8,90,0.00,,,0.14,WUHU21623XXSP,2013-09-10 10:44:00,
2013-09-10 05:49:00,64.8,61.8,29.69,NW,315,7.4,7.4,90,0.00,,,0.14,WUHU21623XXSP,2013-09-10 10:49:00,
2013-09-10 05:54:00,64.8,61.8,29.69,NNW,330,0.9,7.4,90,0.00,,,0.14,WUHU21623XXSP,2013-09-10 10:54:00,
2013-09-10 05:59:00,64.8,61.8,29.69,NNW,331,1.1,7.2,90,0.00,,,0.14,WUHU21623XXSP,2013-09-10 10:59:00,
2013-09-10 06:04:00,64.6,61.7,29.70,WSW,247,2.7,6.9,90,0.00,,,0.14,WUHU21623XXSP,2013-09-10 11:04:00,
2013-09-10 06:09:00,64.4,61.5,29.70,WNW,292,3.6,7.4,90,0.00,,,0.14,WUHU21623XXSP,2013-09-10 11:09:00,
2013-09-10 06:14:00,64.2,61.2,29.69,NW,307,2.5,7.6,90,0.00,,,0.14,WUHU21623XXSP,2013-09-10 11:14:00,
2013-09-10 06:19:00,64.0,61.0,29.70,NW,305,2.2,7.6,90,0.00,,,0.14,WUHU21623XXSP,2013-09-10 11:19:00,
2013-09-10 06:24:00,64.0,61.2,29.70,NW,315,0.0,5.1,90,0.00,,,0.14,WUHU21623XXSP,2013-09-10 11:24:00,
2013-09-10 06:29:00,63.9,60.6,29.70,NW,315,0.0,4.0,89,0.00,,,0.14,WUHU21623XXSP,2013-09-10 11:29:00,
2013-09-10 06:34:00,64.0,60.8,29.70,SSW,202,0.9,4.0,89,0.00,,,0.14,WUHU21623XXSP,2013-09-10 11:34:00,
2013-09-10 06:39:00,63.9,60.6,29.70,WNW,292,0.0,0.9,89,0.00,,,0.14,WUHU21623XXSP,2013-09-10 11:39:00,
2013-09-10 06:44:00,63.7,60.5,29.70,WNW,292,0.0,0.4,89,0.00,,,0.14,WUHU21623XXSP,2013-09-10 11:44:00,
2013-09-10 06:49:00,63.7,60.5,29.71,NW,315,0.0,0.0,89,0.00,,,0.14,WUHU21623XXSP,2013-09-10 11:49:00,
2013-09-10 06:54:00,63.7,60.4,29.71,NW,323,0.1,3.4,89,0.00,,,0.14,WUHU21623XXSP,2013-09-10 11:54:00,
2013-09-10 06:59:00,63.7,60.5,29.71,WNW,292,0.0,3.4,89,0.00,,,0.14,WUHU21623XXSP,2013-09-10 11:59:00,
2013-09-10 07:04:00,63.7,60.5,29.71,WNW,292,6.9,6.9,89,0.00,,,0.14,WUHU21623XXSP,2013-09-10 12:04:00,
2013-09-10 07:09:00,63.5,60.3,29.71,WNW,292,0.0,6.9,89,0.00,,,0.14,WUHU21623XXSP,2013-09-10 12:09:00,
2013-09-10 07:14:00,63.5,60.3,29.72,WSW,247,0.0,3.6,89,0.00,,,0.14,WUHU21623XXSP,2013-09-10 12:14:00,
2013-09-10 07:19:00,63.3,60.1,29.72,West,270,0.0,2.9,89,0.00,,,0.14,WUHU21623XXSP,2013-09-10 12:19:00,
2013-09-10 07:24:00,63.1,59.9,29.72,West,270,0.0,2.9,89,0.00,,,0.14,WUHU21623XXSP,2013-09-10 12:24:00,
2013-09-10 07:29:00,63.1,59.9,29.72,WSW,247,0.0,2.0,89,0.00,,,0.14,WUHU21623XXSP,2013-09-10 12:29:00,
2013-09-10 07:34:00,62.8,59.6,29.72,WNW,292,0.0,4.5,89,0.00,,,0.14,WUHU21623XXSP,2013-09-10 12:34:00,
2013-09-10 07:39:00,62.8,59.6,29.73,West,270,0.0,4.5,89,0.00,,,0.14,WUHU21623XXSP,2013-09-10 12:39:00,
2013-09-10 07:44:00,62.6,59.4,29.73,WNW,292,1.8,5.4,89,0.00,,,0.14,WUHU21623XXSP,2013-09-10 12:44:00,
2013-09-10 07:49:00,62.4,59.2,29.73,West,270,0.0,5.4,89,0.00,,,0.14,WUHU21623XXSP,2013-09-10 12:49:00,
2013-09-10 07:54:00,62.4,59.2,29.73,NW,315,6.3,6.3,89,0.00,,,0.14,WUHU21623XXSP,2013-09-10 12:54:00,
2013-09-10 07:59:00,62.4,59.2,29.73,NW,315,1.6,6.3,89,0.00,,,0.14,WUHU21623XXSP,2013-09-10 12:59:00,
2013-09-10 08:04:00,62.2,59.0,29.73,WNW,292,0.0,5.6,89,0.00,,,0.14,WUHU21623XXSP,2013-09-10 13:04:00,
2013-09-10 08:09:00,62.2,59.0,29.73,West,270,0.0,2.9,89,0.00,,,0.14,WUHU21623XXSP,2013-09-10 13:09:00,
2013-09-10 08:14:00,62.2,59.0,29.73,SW,225,1.1,2.9,89,0.00,,,0.14,WUHU21623XXSP,2013-09-10 13:14:00,
2013-09-10 08:19:00,62.2,59.0,29.73,NNW,337,0.0,2.7,89,0.00,,,0.14,WUHU21623XXSP,2013-09-10 13:19:00,
2013-09-10 08:24:00,62.2,59.0,29.73,West,270,0.0,2.0,89,0.00,,,0.14,WUHU21623XXSP,2013-09-10 13:24:00,
2013-09-10 08:29:00,62.1,59.2,29.73,West,270,0.0,2.7,90,0.00,,,0.14,WUHU21623XXSP,2013-09-10 13:29:00,
2013-09-10 08:34:00,62.2,59.4,29.74,NW,315,0.0,2.7,90,0.02,,,0.16,WUHU21623XXSP,2013-09-10 13:34:00,
2013-09-10 08:39:00,62.4,59.5,29.74,NW,315,0.0,2.2,90,0.02,,,0.16,WUHU21623XXSP,2013-09-10 13:39:00,
2013-09-10 08:44:00,62.4,59.5,29.74,WNW,292,0.0,2.2,90,0.02,,,0.16,WUHU21623XXSP,2013-09-10 13:44:00,
2013-09-10 08:49:00,62.4,59.5,29.74,NW,315,0.0,0.9,90,0.02,,,0.16,WUHU21623XXSP,2013-09-10 13:49:00,
2013-09-10 08:54:00,62.6,59.7,29.74,WNW,292,0.0,6.5,90,0.02,,,0.16,WUHU21623XXSP,2013-09-10 13:54:00,
2013-09-10 08:59:00,62.4,59.5,29.74,NW,315,5.4,7.8,90,0.02,,,0.16,WUHU21623XXSP,2013-09-10 13:59:00,
2013-09-10 09:04:00,62.4,59.5,29.74,West,270,0.7,7.8,90,0.02,,,0.16,WUHU21623XXSP,2013-09-10 14:04:00,
2013-09-10 09:09:00,62.4,59.5,29.74,NW,315,5.6,8.1,90,0.02,,,0.16,WUHU21623XXSP,2013-09-10 14:09:00,
2013-09-10 09:14:00,62.4,59.2,29.74,NNW,337,7.2,8.1,89,0.02,,,0.16,WUHU21623XXSP,2013-09-10 14:14:00,
2013-09-10 09:19:00,62.4,59.2,29.74,WNW,292,0.0,9.4,89,0.02,,,0.16,WUHU21623XXSP,2013-09-10 14:19:00,
2013-09-10 09:24:00,63.1,59.9,29.74,West,270,2.2,9.4,89,0.02,,,0.16,WUHU21623XXSP,2013-09-10 14:24:00,
2013-09-10 09:29:00,63.5,60.3,29.74,NW,315,0.0,10.7,89,0.00,,,0.16,WUHU21623XXSP,2013-09-10 14:29:00,
2013-09-10 09:34:00,63.9,60.3,29.74,NW,315,3.8,10.7,88,0.00,,,0.16,WUHU21623XXSP,2013-09-10 14:34:00,
2013-09-10 09:39:00,63.5,59.9,29.74,NW,315,5.8,11.4,88,0.00,,,0.16,WUHU21623XXSP,2013-09-10 14:39:00,
2013-09-10 09:44:00,63.1,59.2,29.74,NW,315,6.9,11.4,87,0.00,,,0.16,WUHU21623XXSP,2013-09-10 14:44:00,
2013-09-10 09:49:00,63.1,59.2,29.75,NW,315,6.0,11.2,87,0.00,,,0.16,WUHU21623XXSP,2013-09-10 14:49:00,
2013-09-10 09:54:00,63.1,59.2,29.75,NW,315,9.8,9.8,87,0.00,,,0.16,WUHU21623XXSP,2013-09-10 14:54:00,
2013-09-10 09:59:00,62.8,58.9,29.75,NW,315,0.0,11.4,87,0.00,,,0.16,WUHU21623XXSP,2013-09-10 14:59:00,
2013-09-10 10:04:00,62.8,58.9,29.75,NW,315,7.8,11.4,87,0.00,,,0.16,WUHU21623XXSP,2013-09-10 15:04:00,
2013-09-10 10:09:00,62.8,59.2,29.75,NW,315,5.6,10.3,88,0.00,,,0.16,WUHU21623XXSP,2013-09-10 15:09:00,
2013-09-10 10:14:00,62.8,58.9,29.75,West,270,1.3,8.5,87,0.00,,,0.16,WUHU21623XXSP,2013-09-10 15:14:00,
2013-09-10 10:19:00,62.8,59.2,29.75,NW,315,3.6,7.6,88,0.00,,,0.16,WUHU21623XXSP,2013-09-10 15:19:00,
2013-09-10 10:24:00,63.1,59.6,29.75,NE,45,0.0,9.2,88,0.00,,,0.16,WUHU21623XXSP,2013-09-10 15:24:00,
2013-09-10 10:29:00,63.1,59.2,29.75,West,270,2.5,9.2,87,0.00,,,0.16,WUHU21623XXSP,2013-09-10 15:29:00,
2013-09-10 10:34:00,63.3,59.4,29.76,WNW,292,0.0,8.3,87,0.00,,,0.16,WUHU21623XXSP,2013-09-10 15:34:00,
2013-09-10 10:39:00,63.5,59.6,29.76,NNW,337,3.4,8.3,87,0.00,,,0.16,WUHU21623XXSP,2013-09-10 15:39:00,
2013-09-10 10:44:00,63.7,59.8,29.76,WNW,292,0.0,8.1,87,0.00,,,0.16,WUHU21623XXSP,2013-09-10 15:44:00,
2013-09-10 10:49:00,64.2,60.3,29.76,NW,315,3.1,8.1,87,0.00,,,0.16,WUHU21623XXSP,2013-09-10 15:49:00,
2013-09-10 10:54:00,64.4,60.2,29.76,West,270,1.1,6.7,86,0.00,,,0.16,WUHU21623XXSP,2013-09-10 15:54:00,
2013-09-10 10:59:00,64.2,60.0,29.76,WNW,292,4.9,10.1,86,0.00,,,0.16,WUHU21623XXSP,2013-09-10 15:59:00,
2013-09-10 11:04:00,64.2,60.0,29.77,WNW,292,0.0,10.1,86,0.00,,,0.16,WUHU21623XXSP,2013-09-10 16:04:00,
2013-09-10 11:09:00,64.4,60.2,29.77,North,0,0.0,6.3,86,0.00,,,0.16,WUHU21623XXSP,2013-09-10 16:09:00,
2013-09-10 11:14:00,64.4,60.2,29.77,West,270,0.0,5.4,86,0.00,,,0.16,WUHU21623XXSP,2013-09-10 16:14:00,
2013-09-10 11:19:00,63.7,59.8,29.77,NW,315,0.0,5.1,87,0.00,,,0.16,WUHU21623XXSP,2013-09-10 16:19:00,
2013-09-10 11:24:00,63.7,59.8,29.77,WNW,292,1.6,5.1,87,0.00,,,0.16,WUHU21623XXSP,2013-09-10 16:24:00,
2013-09-10 11:29:00,63.7,60.1,29.77,NNW,337,8.1,8.1,88,0.00,,,0.16,WUHU21623XXSP,2013-09-10 16:29:00,
2013-09-10 11:34:00,63.5,59.9,29.77,NW,315,0.0,8.1,88,0.00,,,0.16,WUHU21623XXSP,2013-09-10 16:34:00,
2013-09-10 11:39:00,63.5,59.9,29.77,NNW,337,1.6,8.3,88,0.00,,,0.16,WUHU21623XXSP,2013-09-10 16:39:00,
2013-09-10 11:44:00,64.2,60.7,29.78,NW,315,7.6,8.3,88,0.00,,,0.16,WUHU21623XXSP,2013-09-10 16:44:00,
2013-09-10 11:49:00,64.6,61.0,29.78,NW,315,2.0,8.3,88,0.00,,,0.16,WUHU21623XXSP,2013-09-10 16:49:00,
2013-09-10 11:54:00,64.6,60.7,29.78,NW,315,6.0,11.2,87,0.00,,,0.16,WUHU21623XXSP,2013-09-10 16:54:00,
2013-09-10 11:59:00,64.2,60.0,29.78,NW,315,2.0,11.2,86,0.00,,,0.16,WUHU21623XXSP,2013-09-10 16:59:00,
2013-09-10 12:04:00,64.2,60.3,29.78,West,270,0.0,9.2,87,0.00,,,0.16,WUHU21623XXSP,2013-09-10 17:04:00,
2013-09-10 12:09:00,64.6,61.0,29.78,NNW,337,0.0,6.5,88,0.00,,,0.16,WUHU21623XXSP,2013-09-10 17:09:00,
2013-09-10 12:14:00,64.2,60.3,29.78,NW,315,0.0,6.0,87,0.00,,,0.16,WUHU21623XXSP,2013-09-10 17:14:00,
2013-09-10 12:19:00,65.1,61.5,29.78,NNW,337,0.0,6.0,88,0.00,,,0.16,WUHU21623XXSP,2013-09-10 17:19:00,
2013-09-10 12:24:00,66.7,63.0,29.78,WSW,247,0.0,1.3,88,0.00,,,0.16,WUHU21623XXSP,2013-09-10 17:24:00,
2013-09-10 12:29:00,67.3,62.3,29.78,West,270,0.0,4.0,84,0.00,,,0.16,WUHU21623XXSP,2013-09-10 17:29:00,
2013-09-10 12:34:00,67.3,62.0,29.78,NNW,337,0.0,7.4,83,0.00,,,0.16,WUHU21623XXSP,2013-09-10 17:34:00,
2013-09-10 12:39:00,67.1,61.8,29.78,West,270,0.0,7.4,83,0.00,,,0.16,WUHU21623XXSP,2013-09-10 17:39:00,
2013-09-10 12:44:00,66.9,61.3,29.78,SSW,202,0.0,3.8,82,0.00,,,0.16,WUHU21623XXSP,2013-09-10 17:44:00,
2013-09-10 12:49:00,67.1,61.4,29.78,South,180,2.5,5.1,82,0.00,,,0.16,WUHU21623XXSP,2013-09-10 17:49:00,
2013-09-10 12:54:00,67.3,61.6,29.78,NW,315,0.0,5.4,82,0.00,,,0.16,WUHU21623XXSP,2013-09-10 17:54:00,
2013-09-10 12:59:00,67.6,61.7,29.78,West,270,0.0,6.0,81,0.00,,,0.16,WUHU21623XXSP,2013-09-10 17:59:00,
2013-09-10 13:04:00,67.3,61.0,29.79,West,270,0.0,6.0,80,0.00,,,0.16,WUHU21623XXSP,2013-09-10 18:04:00,
2013-09-10 13:09:00,66.4,60.7,29.78,WNW,292,6.9,7.8,82,0.00,,,0.16,WUHU21623XXSP,2013-09-10 18:09:00,
2013-09-10 13:14:00,66.9,61.9,29.79,WNW,292,0.0,7.8,84,0.00,,,0.16,WUHU21623XXSP,2013-09-10 18:14:00,
2013-09-10 13:19:00,67.6,62.6,29.78,West,270,0.0,4.7,84,0.00,,,0.16,WUHU21623XXSP,2013-09-10 18:19:00,
2013-09-10 13:24:00,68.4,63.0,29.79,WNW,292,0.0,4.3,83,0.00,,,0.16,WUHU21623XXSP,2013-09-10 18:24:00,
2013-09-10 13:29:00,68.7,63.0,29.78,WSW,247,0.0,7.4,82,0.00,,,0.16,WUHU21623XXSP,2013-09-10 18:29:00,
2013-09-10 13:34:00,70.3,63.5,29.78,West,270,1.3,7.4,79,0.00,,,0.16,WUHU21623XXSP,2013-09-10 18:34:00,
2013-09-10 13:39:00,70.0,62.4,29.78,West,270,0.0,6.9,77,0.00,,,0.16,WUHU21623XXSP,2013-09-10 18:39:00,
2013-09-10 13:44:00,70.2,62.5,29.78,NW,315,0.9,6.9,77,0.00,,,0.16,WUHU21623XXSP,2013-09-10 18:44:00,
2013-09-10 13:49:00,69.4,61.9,29.78,WSW,247,0.0,6.0,77,0.00,,,0.16,WUHU21623XXSP,2013-09-10 18:49:00,
2013-09-10 13:54:00,68.5,62.2,29.79,WNW,292,0.9,5.6,80,0.00,,,0.16,WUHU21623XXSP,2013-09-10 18:54:00,
2013-09-10 13:59:00,68.4,62.0,29.78,WNW,292,0.0,5.6,80,0.00,,,0.16,WUHU21623XXSP,2013-09-10 18:59:00,
2013-09-10 14:04:00,68.2,61.9,29.78,NNW,337,0.0,1.1,80,0.00,,,0.16,WUHU21623XXSP,2013-09-10 19:04:00,
2013-09-10 14:09:00,68.2,62.2,29.78,WNW,292,3.4,5.4,81,0.00,,,0.16,WUHU21623XXSP,2013-09-10 19:09:00,
2013-09-10 14:14:00,67.1,61.8,29.78,NW,315,0.0,5.6,83,0.00,,,0.16,WUHU21623XXSP,2013-09-10 19:14:00,
2013-09-10 14:19:00,66.7,62.1,29.78,WNW,292,0.0,5.6,85,0.00,,,0.16,WUHU21623XXSP,2013-09-10 19:19:00,
2013-09-10 14:24:00,67.6,63.3,29.78,West,270,0.0,0.9,86,0.00,,,0.16,WUHU21623XXSP,2013-09-10 19:24:00,
2013-09-10 14:29:00,68.9,63.5,29.78,SW,225,3.6,4.9,83,0.00,,,0.16,WUHU21623XXSP,2013-09-10 19:29:00,
2013-09-10 14:34:00,69.8,63.7,29.78,SSW,202,5.8,5.8,81,0.00,,,0.16,WUHU21623XXSP,2013-09-10 19:34:00,
2013-09-10 14:39:00,69.1,62.7,29.78,NW,315,0.0,5.8,80,0.00,,,0.16,WUHU21623XXSP,2013-09-10 19:39:00,
2013-09-10 14:44:00,69.8,62.2,29.78,West,270,0.9,4.9,77,0.00,,,0.16,WUHU21623XXSP,2013-09-10 19:44:00,
2013-09-10 14:49:00,69.8,62.2,29.78,WSW,247,0.0,4.9,77,0.00,,,0.16,WUHU21623XXSP,2013-09-10 19:49:00,
2013-09-10 14:54:00,70.0,62.4,29.78,WNW,292,0.0,3.6,77,0.00,,,0.16,WUHU21623XXSP,2013-09-10 19:54:00,
2013-09-10 14:59:00,71.2,62.5,29.78,WSW,247,0.0,4.5,74,0.00,,,0.16,WUHU21623XXSP,2013-09-10 19:59:00,
2013-09-10 15:04:00,71.2,62.9,29.78,WNW,292,1.3,5.6,75,0.00,,,0.16,WUHU21623XXSP,2013-09-10 20:04:00,
2013-09-10 15:09:00,71.8,62.7,29.77,NW,315,0.0,5.6,73,0.00,,,0.16,WUHU21623XXSP,2013-09-10 20:09:00,
2013-09-10 15:14:00,73.0,63.9,29.78,WNW,292,0.0,5.6,73,0.00,,,0.16,WUHU21623XXSP,2013-09-10 20:14:00,
2013-09-10 15:19:00,73.6,63.7,29.78,West,270,1.3,6.9,71,0.00,,,0.16,WUHU21623XXSP,2013-09-10 20:19:00,
2013-09-10 15:24:00,72.7,62.0,29.78,SSW,202,3.8,7.6,69,0.00,,,0.16,WUHU21623XXSP,2013-09-10 20:24:00,
2013-09-10 15:29:00,71.4,61.5,29.78,WNW,292,0.0,7.6,71,0.00,,,0.16,WUHU21623XXSP,2013-09-10 20:29:00,
2013-09-10 15:34:00,71.4,61.9,29.78,WNW,292,0.0,6.5,72,0.00,,,0.16,WUHU21623XXSP,2013-09-10 20:34:00,
2013-09-10 15:39:00,70.5,60.4,29.78,WSW,247,0.0,7.2,71,0.00,,,0.16,WUHU21623XXSP,2013-09-10 20:39:00,
2013-09-10 15:44:00,69.6,60.9,29.78,WSW,247,0.0,7.2,75,0.00,,,0.16,WUHU21623XXSP,2013-09-10 20:44:00,
2013-09-10 15:49:00,70.9,61.4,29.78,WSW,247,1.1,7.8,72,0.00,,,0.16,WUHU21623XXSP,2013-09-10 20:49:00,
2013-09-10 15:54:00,72.0,62.1,29.78,SW,225,0.0,7.8,71,0.00,,,0.16,WUHU21623XXSP,2013-09-10 20:54:00,
2013-09-10 15:59:00,72.3,62.1,29.78,WSW,247,0.2,7.4,70,0.00,,,0.16,WUHU21623XXSP,2013-09-10 20:59:00,
2013-09-10 16:04:00,73.0,61.4,29.78,WSW,247,0.0,7.4,67,0.00,,,0.16,WUHU21623XXSP,2013-09-10 21:04:00,
2013-09-10 16:09:00,73.2,61.6,29.78,WSW,247,3.1,6.9,67,0.00,,,0.16,WUHU21623XXSP,2013-09-10 21:09:00,
2013-09-10 16:14:00,73.2,61.2,29.78,WSW,247,2.9,6.9,66,0.00,,,0.16,WUHU21623XXSP,2013-09-10 21:14:00,
2013-09-10 16:19:00,73.0,59.6,29.78,WSW,247,1.8,7.8,63,0.00,,,0.16,WUHU21623XXSP,2013-09-10 21:19:00,
2013-09-10 16:24:00,73.0,60.1,29.78,WSW,247,0.0,7.8,64,0.00,,,0.16,WUHU21623XXSP,2013-09-10 21:24:00,
2013-09-10 16:29:00,73.2,61.6,29.78,WNW,292,3.4,5.6,67,0.00,,,0.16,WUHU21623XXSP,2013-09-10 21:29:00,
2013-09-10 16:34:00,73.2,60.3,29.78,WSW,247,1.1,8.1,64,0.00,,,0.16,WUHU21623XXSP,2013-09-10 21:34:00,
2013-09-10 16:39:00,72.7,60.6,29.78,West,270,0.0,8.1,66,0.00,,,0.16,WUHU21623XXSP,2013-09-10 21:39:00,
2013-09-10 16:44:00,72.7,60.2,29.78,WSW,247,0.0,4.7,65,0.00,,,0.16,WUHU21623XXSP,2013-09-10 21:44:00,
2013-09-10 16:49:00,73.0,61.0,29.78,West,270,1.8,5.6,66,0.00,,,0.16,WUHU21623XXSP,2013-09-10 21:49:00,
2013-09-10 16:54:00,72.3,60.3,29.78,WSW,247,0.0,5.6,66,0.00,,,0.16,WUHU21623XXSP,2013-09-10 21:54:00,
2013-09-10 16:59:00,71.8,61.1,29.78,NW,315,1.3,5.6,69,0.00,,,0.16,WUHU21623XXSP,2013-09-10 21:59:00,
2013-09-10 17:04:00,70.9,61.4,29.78,NW,315,3.6,8.5,72,0.00,,,0.16,WUHU21623XXSP,2013-09-10 22:04:00,
2013-09-10 17:09:00,70.3,61.6,29.79,NNW,337,6.0,8.5,74,0.00,,,0.16,WUHU21623XXSP,2013-09-10 22:09:00,
2013-09-10 17:14:00,71.4,61.9,29.79,WSW,247,0.0,6.7,72,0.00,,,0.16,WUHU21623XXSP,2013-09-10 22:14:00,
2013-09-10 17:19:00,71.8,61.5,29.79,NNW,337,1.6,7.4,70,0.00,,,0.16,WUHU21623XXSP,2013-09-10 22:19:00,
2013-09-10 17:24:00,71.4,61.2,29.79,NW,315,6.0,8.7,70,0.00,,,0.16,WUHU21623XXSP,2013-09-10 22:24:00,
2013-09-10 17:29:00,70.9,61.0,29.79,WNW,292,0.0,8.7,71,0.00,,,0.16,WUHU21623XXSP,2013-09-10 22:29:00,
2013-09-10 17:34:00,70.5,61.0,29.79,NNW,337,5.8,6.9,72,0.00,,,0.16,WUHU21623XXSP,2013-09-10 22:34:00,
2013-09-10 17:39:00,70.2,61.0,29.79,NW,315,3.4,8.5,73,0.00,,,0.16,WUHU21623XXSP,2013-09-10 22:39:00,
2013-09-10 17:44:00,70.0,60.9,29.79,NW,315,0.0,8.5,73,0.00,,,0.16,WUHU21623XXSP,2013-09-10 22:44:00,
2013-09-10 17:49:00,69.6,60.9,29.79,NW,315,4.0,10.7,74,0.00,,,0.16,WUHU21623XXSP,2013-09-10 22:49:00,
2013-09-10 17:54:00,69.4,61.1,29.79,NW,315,0.0,10.7,75,0.00,,,0.16,WUHU21623XXSP,2013-09-10 22:54:00,
2013-09-10 17:59:00,69.1,61.2,29.79,NW,315,4.0,6.5,76,0.00,,,0.16,WUHU21623XXSP,2013-09-10 22:59:00,
2013-09-10 18:04:00,69.4,61.5,29.79,NW,315,8.7,9.4,76,0.00,,,0.16,WUHU21623XXSP,2013-09-10 23:04:00,
2013-09-10 18:09:00,69.3,60.9,29.79,NW,315,2.2,10.1,75,0.00,,,0.16,WUHU21623XXSP,2013-09-10 23:09:00,
2013-09-10 18:14:00,68.7,61.2,29.79,NW,315,0.0,10.1,77,0.00,,,0.16,WUHU21623XXSP,2013-09-10 23:14:00,
2013-09-10 18:19:00,68.7,61.2,29.79,NW,315,0.0,8.3,77,0.00,,,0.16,WUHU21623XXSP,2013-09-10 23:19:00,
2013-09-10 18:24:00,68.7,60.8,29.79,NW,315,2.7,8.7,76,0.00,,,0.16,WUHU21623XXSP,2013-09-10 23:24:00,
2013-09-10 18:29:00,68.7,60.8,29.79,NW,315,4.3,8.7,76,0.00,,,0.16,WUHU21623XXSP,2013-09-10 23:29:00,
2013-09-10 18:34:00,68.7,60.8,29.80,NNW,337,0.0,7.6,76,0.00,,,0.16,WUHU21623XXSP,2013-09-10 23:34:00,
2013-09-10 18:39:00,68.2,60.0,29.80,WNW,292,5.4,7.6,75,0.00,,,0.16,WUHU21623XXSP,2013-09-10 23:39:00,
2013-09-10 18:44:00,67.6,59.8,29.80,NW,315,1.6,8.1,76,0.00,,,0.16,WUHU21623XXSP,2013-09-10 23:44:00,
2013-09-10 18:49:00,67.3,59.1,29.80,NW,315,2.0,8.7,75,0.00,,,0.16,WUHU21623XXSP,2013-09-10 23:49:00,
2013-09-10 18:54:00,66.6,59.1,29.80,NW,315,0.0,8.7,77,0.00,,,0.16,WUHU21623XXSP,2013-09-10 23:54:00,
2013-09-10 18:59:00,66.0,59.0,29.80,NW,315,0.7,6.7,78,0.00,,,0.16,WUHU21623XXSP,2013-09-10 23:59:00,
2013-09-10 19:04:00,65.7,59.0,29.81,NNW,337,2.2,4.9,79,0.00,,,0.16,WUHU21623XXSP,2013-09-11 00:04:00,
2013-09-10 19:09:00,65.3,58.6,29.81,NNW,337,0.0,6.7,79,0.00,,,0.16,WUHU21623XXSP,2013-09-11 00:09:00,
2013-09-10 19:14:00,65.1,58.8,29.81,NNW,337,0.0,6.7,80,0.00,,,0.16,WUHU21623XXSP,2013-09-11 00:14:00,
2013-09-10 19:19:00,65.1,58.8,29.81,NW,315,0.0,6.3,80,0.00,,,0.16,WUHU21623XXSP,2013-09-11 00:19:00,
2013-09-10 19:24:00,64.9,59.0,29.81,NW,315,1.1,6.7,81,0.00,,,0.16,WUHU21623XXSP,2013-09-11 00:24:00,
2013-09-10 19:29:00,64.6,58.6,29.81,NW,315,2.9,6.7,81,0.00,,,0.16,WUHU21623XXSP,2013-09-11 00:29:00,
2013-09-10 19:34:00,64.6,58.6,29.81,NW,315,5.6,5.6,81,0.00,,,0.16,WUHU21623XXSP,2013-09-11 00:34:00,
2013-09-10 19:39:00,64.0,58.4,29.82,NW,315,0.0,5.6,82,0.00,,,0.16,WUHU21623XXSP,2013-09-11 00:39:00,
2013-09-10 19:44:00,63.7,58.1,29.81,NNW,337,0.0,2.7,82,0.00,,,0.16,WUHU21623XXSP,2013-09-11 00:44:00,
2013-09-10 19:49:00,63.1,58.2,29.81,NNW,337,0.0,2.7,84,0.00,,,0.16,WUHU21623XXSP,2013-09-11 00:49:00,
2013-09-10 19:54:00,62.4,57.8,29.82,NNW,337,0.0,0.0,85,0.00,,,0.16,WUHU21623XXSP,2013-09-11 00:54:00,
2013-09-10 19:59:00,62.4,57.8,29.82,NNW,337,0.0,0.0,85,0.00,,,0.16,WUHU21623XXSP,2013-09-11 00:59:00,
2013-09-10 20:04:00,62.2,58.0,29.82,NNW,337,0.0,0.0,86,0.00,,,0.16,WUHU21623XXSP,2013-09-11 01:04:00,
2013-09-10 20:09:00,61.5,57.3,29.83,NNW,337,0.0,0.0,86,0.00,,,0.16,WUHU21623XXSP,2013-09-11 01:09:00,
2013-09-10 20:17:00,61.5,57.3,29.83,NNW,337,0.0,0.0,86,0.00,,,0.16,WUHU21623XXSP,2013-09-11 01:17:00,
2013-09-10 20:22:00,61.9,58.0,29.83,NNW,337,0.0,0.0,87,0.00,,,0.16,WUHU21623XXSP,2013-09-11 01:22:00,
2013-09-10 20:27:00,61.7,57.5,29.83,NNW,337,0.0,0.0,86,0.00,,,0.16,WUHU21623XXSP,2013-09-11 01:27:00,
2013-09-10 20:32:00,61.0,56.8,29.83,NNW,337,0.0,0.0,86,0.00,,,0.16,WUHU21623XXSP,2013-09-11 01:32:00,
2013-09-10 20:37:00,61.3,57.5,29.83,NNW,337,0.0,0.0,87,0.00,,,0.16,WUHU21623XXSP,2013-09-11 01:37:00,
2013-09-10 20:42:00,61.7,57.8,29.83,NNW,337,0.0,0.0,87,0.00,,,0.16,WUHU21623XXSP,2013-09-11 01:42:00,
2013-09-10 20:47:00,61.7,57.8,29.83,NNW,337,0.0,0.0,87,0.00,,,0.16,WUHU21623XXSP,2013-09-11 01:47:00,
2013-09-10 20:52:00,62.1,58.2,29.83,NNW,337,0.0,0.0,87,0.00,,,0.16,WUHU21623XXSP,2013-09-11 01:52:00,
2013-09-10 20:57:00,61.7,57.5,29.83,NNW,337,0.0,0.0,86,0.00,,,0.16,WUHU21623XXSP,2013-09-11 01:57:00,
2013-09-10 21:02:00,61.2,57.3,29.84,NNW,337,0.0,0.0,87,0.00,,,0.16,WUHU21623XXSP,2013-09-11 02:02:00,
2013-09-10 21:07:00,61.0,57.1,29.84,NNW,337,0.0,0.0,87,0.00,,,0.16,WUHU21623XXSP,2013-09-11 02:07:00,
2013-09-10 21:12:00,61.2,57.6,29.84,NNW,337,0.0,0.0,88,0.00,,,0.16,WUHU21623XXSP,2013-09-11 02:12:00,
2013-09-10 21:17:00,61.3,57.5,29.84,NNW,337,0.0,0.0,87,0.00,,,0.16,WUHU21623XXSP,2013-09-11 02:17:00,
2013-09-10 21:22:00,61.5,57.6,29.84,NNW,337,0.0,0.0,87,0.00,,,0.16,WUHU21623XXSP,2013-09-11 02:22:00,
2013-09-10 21:27:00,61.3,57.5,29.84,NNW,337,0.0,0.0,87,0.00,,,0.16,WUHU21623XXSP,2013-09-11 02:27:00,
2013-09-10 21:32:00,61.5,57.6,29.84,NNW,337,0.0,0.0,87,0.00,,,0.16,WUHU21623XXSP,2013-09-11 02:32:00,
2013-09-10 21:37:00,61.5,57.6,29.84,NNW,337,0.0,0.0,87,0.00,,,0.16,WUHU21623XXSP,2013-09-11 02:37:00,
2013-09-10 21:42:00,61.3,57.5,29.84,NNW,337,0.0,1.3,87,0.00,,,0.16,WUHU21623XXSP,2013-09-11 02:42:00,
2013-09-10 21:47:00,61.0,57.1,29.84,NNW,337,0.0,1.3,87,0.00,,,0.16,WUHU21623XXSP,2013-09-11 02:47:00,
2013-09-10 21:52:00,60.6,56.8,29.84,NNW,337,0.0,1.1,87,0.00,,,0.16,WUHU21623XXSP,2013-09-11 02:52:00,
2013-09-10 21:57:00,60.4,56.6,29.84,NNW,337,0.0,0.0,87,0.00,,,0.16,WUHU21623XXSP,2013-09-11 02:57:00,
2013-09-10 22:02:00,60.4,56.6,29.84,NNW,337,0.0,0.0,87,0.00,,,0.16,WUHU21623XXSP,2013-09-11 03:02:00,
2013-09-10 22:07:00,60.4,56.6,29.84,NNW,337,0.0,0.0,87,0.00,,,0.16,WUHU21623XXSP,2013-09-11 03:07:00,
2013-09-10 22:12:00,60.4,56.6,29.84,NNW,337,0.0,0.0,87,0.00,,,0.16,WUHU21623XXSP,2013-09-11 03:12:00,
2013-09-10 22:17:00,60.4,56.6,29.84,NNW,337,0.0,0.0,87,0.00,,,0.16,WUHU21623XXSP,2013-09-11 03:17:00,
2013-09-10 22:22:00,60.4,56.6,29.84,NNW,337,0.0,0.0,87,0.00,,,0.16,WUHU21623XXSP,2013-09-11 03:22:00,
2013-09-10 22:27:00,61.0,57.1,29.84,WSW,247,0.0,0.0,87,0.00,,,0.16,WUHU21623XXSP,2013-09-11 03:27:00,
2013-09-10 22:32:00,60.6,56.8,29.84,West,270,0.0,0.0,87,0.00,,,0.16,WUHU21623XXSP,2013-09-11 03:32:00,
2013-09-10 22:37:00,60.6,56.4,29.84,West,270,0.0,0.0,86,0.00,,,0.16,WUHU21623XXSP,2013-09-11 03:37:00,
2013-09-10 22:42:00,60.6,56.4,29.84,West,270,0.0,0.0,86,0.00,,,0.16,WUHU21623XXSP,2013-09-11 03:42:00,
2013-09-10 22:47:00,60.4,56.6,29.84,West,270,0.0,0.0,87,0.00,,,0.16,WUHU21623XXSP,2013-09-11 03:47:00,
2013-09-10 22:52:00,60.1,56.2,29.85,West,270,0.0,0.0,87,0.00,,,0.16,WUHU21623XXSP,2013-09-11 03:52:00,
2013-09-10 22:57:00,60.1,56.2,29.84,West,270,0.0,0.0,87,0.00,,,0.16,WUHU21623XXSP,2013-09-11 03:57:00,
2013-09-10 23:01:00,60.1,56.2,29.85,West,270,0.0,0.0,87,0.00,,,0.16,WUHU21623XXSP,2013-09-11 04:01:00,
2013-09-10 23:06:00,59.9,56.0,29.84,West,270,0.0,0.0,87,0.00,,,0.16,WUHU21623XXSP,2013-09-11 04:06:00,
2013-09-10 23:11:00,59.7,55.9,29.84,West,270,0.0,0.0,87,0.00,,,0.16,WUHU21623XXSP,2013-09-11 04:11:00,
2013-09-10 23:16:00,59.5,55.7,29.85,West,270,0.0,0.0,87,0.00,,,0.16,WUHU21623XXSP,2013-09-11 04:16:00,
2013-09-10 23:21:00,59.5,56.0,29.84,West,270,0.0,0.0,88,0.00,,,0.16,WUHU21623XXSP,2013-09-11 04:21:00,
2013-09-10 23:26:00,59.7,56.2,29.85,West,270,0.0,0.0,88,0.00,,,0.16,WUHU21623XXSP,2013-09-11 04:26:00,
2013-09-10 23:31:00,59.7,56.2,29.85,West,270,0.0,0.0,88,0.00,,,0.16,WUHU21623XXSP,2013-09-11 04:31:00,
2013-09-10 23:36:00,59.5,56.0,29.84,West,270,0.0,0.0,88,0.00,,,0.16,WUHU21623XXSP,2013-09-11 04:36:00,
2013-09-10 23:41:00,59.5,56.0,29.84,WSW,247,0.0,0.0,88,0.00,,,0.16,WUHU21623XXSP,2013-09-11 04:41:00,
2013-09-10 23:46:00,59.5,56.0,29.84,South,180,0.0,2.2,88,0.00,,,0.16,WUHU21623XXSP,2013-09-11 04:46:00,
2013-09-10 23:51:00,59.4,55.8,29.84,South,180,0.0,2.2,88,0.00,,,0.16,WUHU21623XXSP,2013-09-11 04:51:00,
2013-09-10 23:57:00,59.0,55.5,29.84,South,180,0.0,1.3,88,0.00,,,0.16,WUHU21623XXSP,2013-09-11 04:57:00,